Aviation Digital Data Service (ADDS)

Output produced by TAFs form (1725 UTC 09 December 2016)
found at http://aviationweather.gov/adds/tafs/
 
KABQ 091129Z 0912/1012 01005KT P6SM FEW250 
     FM092100 VRB05KT P6SM SCT200